sensor_id;sensor_type;location;lat;lon;timestamp;pressure;altitude;pressure_sealevel;temperature;humidity
49393;BME280;35268;42.642;23.308;2023-05-19T00:00:16;94153.88;;;10.77;80.19
49393;BME280;35268;42.642;23.308;2023-05-19T00:02:42;94145.69;;;10.74;79.91
49393;BME280;35268;42.642;23.308;2023-05-19T00:05:09;94143.81;;;10.74;80.93
49393;BME280;35268;42.642;23.308;2023-05-19T00:07:36;94148.34;;;10.74;80.70
49393;BME280;35268;42.642;23.308;2023-05-19T00:10:02;94140.53;;;10.77;80.68
49393;BME280;35268;42.642;23.308;2023-05-19T00:12:28;94143.88;;;10.83;80.14
49393;BME280;35268;42.642;23.308;2023-05-19T00:14:54;94143.88;;;10.83;79.20
49393;BME280;35268;42.642;23.308;2023-05-19T00:17:20;94142.28;;;10.82;78.79
49393;BME280;35268;42.642;23.308;2023-05-19T00:19:45;94136.16;;;10.81;78.65
49393;BME280;35268;42.642;23.308;2023-05-19T00:22:11;94130.19;;;10.84;77.76
49393;BME280;35268;42.642;23.308;2023-05-19T00:24:36;94135.88;;;10.83;78.52
49393;BME280;35268;42.642;23.308;2023-05-19T00:27:02;94123.78;;;10.86;78.76
49393;BME280;35268;42.642;23.308;2023-05-19T00:29:28;94124.09;;;10.84;78.40
49393;BME280;35268;42.642;23.308;2023-05-19T00:31:53;94128.03;;;10.87;78.11
49393;BME280;35268;42.642;23.308;2023-05-19T00:34:19;94126.47;;;10.86;78.23
49393;BME280;35268;42.642;23.308;2023-05-19T00:36:44;94117.69;;;10.85;78.39
49393;BME280;35268;42.642;23.308;2023-05-19T00:39:10;94126.28;;;10.82;78.86
49393;BME280;35268;42.642;23.308;2023-05-19T00:41:35;94124.41;;;10.82;78.40
49393;BME280;35268;42.642;23.308;2023-05-19T00:44:00;94118.28;;;10.82;77.54
49393;BME280;35268;42.642;23.308;2023-05-19T00:46:26;94121.91;;;10.86;77.35
49393;BME280;35268;42.642;23.308;2023-05-19T00:48:51;94112.81;;;10.87;77.52
49393;BME280;35268;42.642;23.308;2023-05-19T00:51:17;94119.13;;;10.91;77.51
49393;BME280;35268;42.642;23.308;2023-05-19T00:53:43;94115.50;;;10.87;77.35
49393;BME280;35268;42.642;23.308;2023-05-19T00:56:13;94122.88;;;10.90;76.67
49393;BME280;35268;42.642;23.308;2023-05-19T00:58:40;94113.78;;;10.91;76.96
49393;BME280;35268;42.642;23.308;2023-05-19T01:01:06;94117.22;;;10.92;77.00
49393;BME280;35268;42.642;23.308;2023-05-19T01:03:33;94110.00;;;10.92;76.62
49393;BME280;35268;42.642;23.308;2023-05-19T01:05:59;94110.31;;;10.91;76.68
49393;BME280;35268;42.642;23.308;2023-05-19T01:08:30;94114.38;;;10.88;76.96
49393;BME280;35268;42.642;23.308;2023-05-19T01:10:55;94112.47;;;10.80;76.90
49393;BME280;35268;42.642;23.308;2023-05-19T01:13:21;94119.38;;;10.81;77.55
49393;BME280;35268;42.642;23.308;2023-05-19T01:16:19;94125.94;;;10.75;77.74
49393;BME280;35268;42.642;23.308;2023-05-19T01:33:01;94126.13;;;10.47;79.33
49393;BME280;35268;42.642;23.308;2023-05-19T01:35:28;94121.88;;;10.46;79.57
49393;BME280;35268;42.642;23.308;2023-05-19T01:37:57;94112.31;;;10.45;79.57
49393;BME280;35268;42.642;23.308;2023-05-19T01:40:24;94109.34;;;10.47;79.55
49393;BME280;35268;42.642;23.308;2023-05-19T01:42:55;94112.31;;;10.45;79.39
49393;BME280;35268;42.642;23.308;2023-05-19T01:45:21;94118.25;;;10.42;79.80
49393;BME280;35268;42.642;23.308;2023-05-19T01:47:50;94120.75;;;10.38;79.28
49393;BME280;35268;42.642;23.308;2023-05-19T01:50:16;94118.38;;;10.37;79.62
49393;BME280;35268;42.642;23.308;2023-05-19T01:52:42;94112.56;;;10.35;79.83
49393;BME280;35268;42.642;23.308;2023-05-19T01:55:07;94121.63;;;10.34;80.25
49393;BME280;35268;42.642;23.308;2023-05-19T01:57:51;94123.81;;;10.32;80.55
49393;BME280;35268;42.642;23.308;2023-05-19T02:08:32;94134.84;;;10.16;81.62
49393;BME280;35268;42.642;23.308;2023-05-19T02:11:10;94132.75;;;10.13;82.47
49393;BME280;35268;42.642;23.308;2023-05-19T02:13:42;94126.38;;;10.14;82.99
49393;BME280;35268;42.642;23.308;2023-05-19T02:16:09;94133.56;;;10.14;82.80
49393;BME280;35268;42.642;23.308;2023-05-19T02:18:35;94126.47;;;10.09;83.09
49393;BME280;35268;42.642;23.308;2023-05-19T02:21:02;94136.53;;;10.12;83.33
49393;BME280;35268;42.642;23.308;2023-05-19T02:23:27;94138.09;;;10.13;83.15
49393;BME280;35268;42.642;23.308;2023-05-19T02:25:53;94135.91;;;10.15;83.26
49393;BME280;35268;42.642;23.308;2023-05-19T02:28:18;94138.09;;;10.13;83.71
49393;BME280;35268;42.642;23.308;2023-05-19T02:30:43;94131.63;;;10.06;84.10
49393;BME280;35268;42.642;23.308;2023-05-19T02:33:09;94128.28;;;10.00;84.53
49393;BME280;35268;42.642;23.308;2023-05-19T02:35:35;94133.13;;;9.98;84.54
49393;BME280;35268;42.642;23.308;2023-05-19T02:38:01;94143.50;;;9.99;84.47
49393;BME280;35268;42.642;23.308;2023-05-19T02:40:26;94143.50;;;9.99;84.43
49393;BME280;35268;42.642;23.308;2023-05-19T02:42:52;94139.53;;;9.97;84.32
49393;BME280;35268;42.642;23.308;2023-05-19T02:45:17;94138.75;;;9.96;84.79
49393;BME280;35268;42.642;23.308;2023-05-19T02:47:43;94131.69;;;9.92;84.84
49393;BME280;35268;42.642;23.308;2023-05-19T02:50:08;94139.66;;;9.92;84.82
49393;BME280;35268;42.642;23.308;2023-05-19T02:52:34;94141.56;;;9.91;85.13
49393;BME280;35268;42.642;23.308;2023-05-19T02:54:59;94139.19;;;9.90;84.95
49393;BME280;35268;42.642;23.308;2023-05-19T02:57:25;94147.16;;;9.90;85.00
49393;BME280;35268;42.642;23.308;2023-05-19T02:59:54;94140.19;;;9.80;85.58
49393;BME280;35268;42.642;23.308;2023-05-19T03:02:19;94142.09;;;9.79;85.67
49393;BME280;35268;42.642;23.308;2023-05-19T03:04:45;94140.00;;;9.76;86.18
49393;BME280;35268;42.642;23.308;2023-05-19T03:07:10;94144.25;;;9.77;86.22
49393;BME280;35268;42.642;23.308;2023-05-19T03:09:38;94146.09;;;9.77;86.64
49393;BME280;35268;42.642;23.308;2023-05-19T03:12:04;94146.91;;;9.77;86.38
49393;BME280;35268;42.642;23.308;2023-05-19T03:14:32;94146.91;;;9.77;86.59
49393;BME280;35268;42.642;23.308;2023-05-19T03:16:58;94156.59;;;9.73;86.95
49393;BME280;35268;42.642;23.308;2023-05-19T03:19:24;94151.63;;;9.80;86.86
49393;BME280;35268;42.642;23.308;2023-05-19T03:21:50;94154.78;;;9.82;86.91
49393;BME280;35268;42.642;23.308;2023-05-19T03:24:15;94151.81;;;9.84;86.91
49393;BME280;35268;42.642;23.308;2023-05-19T03:26:42;94157.34;;;9.88;86.49
49393;BME280;35268;42.642;23.308;2023-05-19T03:29:07;94162.84;;;9.91;86.30
49393;BME280;35268;42.642;23.308;2023-05-19T03:31:33;94149.53;;;9.91;86.53
49393;BME280;35268;42.642;23.308;2023-05-19T03:33:58;94148.44;;;9.92;86.63
49393;BME280;35268;42.642;23.308;2023-05-19T03:36:23;94146.44;;;9.98;86.50
49393;BME280;35268;42.642;23.308;2023-05-19T03:38:49;94153.03;;;10.00;86.26
49393;BME280;35268;42.642;23.308;2023-05-19T03:41:15;94151.66;;;10.03;86.56
49393;BME280;35268;42.642;23.308;2023-05-19T03:43:40;94156.69;;;10.04;85.94
49393;BME280;35268;42.642;23.308;2023-05-19T03:46:05;94148.25;;;10.11;86.00
49393;BME280;35268;42.642;23.308;2023-05-19T03:48:31;94154.69;;;10.10;85.77
49393;BME280;35268;42.642;23.308;2023-05-19T03:50:56;94160.69;;;10.16;85.37
49393;BME280;35268;42.642;23.308;2023-05-19T03:53:22;94159.97;;;10.24;85.56
49393;BME280;35268;42.642;23.308;2023-05-19T03:55:48;94161.94;;;10.32;84.70
49393;BME280;35268;42.642;23.308;2023-05-19T03:58:14;94159.59;;;10.39;84.87
49393;BME280;35268;42.642;23.308;2023-05-19T04:00:41;94164.50;;;10.46;84.32
49393;BME280;35268;42.642;23.308;2023-05-19T04:03:06;94153.72;;;10.51;84.42
49393;BME280;35268;42.642;23.308;2023-05-19T04:05:32;94162.56;;;10.60;83.95
49393;BME280;35268;42.642;23.308;2023-05-19T04:07:58;94170.25;;;10.62;83.79
49393;BME280;35268;42.642;23.308;2023-05-19T04:10:23;94174.69;;;10.67;83.43
49393;BME280;35268;42.642;23.308;2023-05-19T04:12:49;94166.69;;;10.67;82.72
49393;BME280;35268;42.642;23.308;2023-05-19T04:15:14;94169.69;;;10.74;83.40
49393;BME280;35268;42.642;23.308;2023-05-19T04:17:40;94159.81;;;10.74;82.78
49393;BME280;35268;42.642;23.308;2023-05-19T04:20:06;94164.34;;;10.74;83.09
49393;BME280;35268;42.642;23.308;2023-05-19T04:22:32;94165.47;;;10.73;82.92
49393;BME280;35268;42.642;23.308;2023-05-19T04:24:57;94172.53;;;10.77;82.92
49393;BME280;35268;42.642;23.308;2023-05-19T04:27:24;94178.69;;;10.87;82.91
49393;BME280;35268;42.642;23.308;2023-05-19T04:29:50;94179.03;;;10.94;82.91
49393;BME280;35268;42.642;23.308;2023-05-19T04:32:15;94180.78;;;10.98;82.11
49393;BME280;35268;42.642;23.308;2023-05-19T04:34:43;94187.56;;;11.04;81.73
49393;BME280;35268;42.642;23.308;2023-05-19T04:37:12;94181.63;;;11.08;81.24
49393;BME280;35268;42.642;23.308;2023-05-19T04:39:38;94189.47;;;11.13;81.38
49393;BME280;35268;42.642;23.308;2023-05-19T04:42:07;94198.91;;;11.19;80.79
49393;BME280;35268;42.642;23.308;2023-05-19T04:44:33;94190.16;;;11.27;80.56
49393;BME280;35268;42.642;23.308;2023-05-19T04:46:58;94198.50;;;11.34;79.14
49393;BME280;35268;42.642;23.308;2023-05-19T04:49:24;94191.59;;;11.33;80.39
49393;BME280;35268;42.642;23.308;2023-05-19T04:51:49;94191.75;;;11.28;80.39
49393;BME280;35268;42.642;23.308;2023-05-19T04:54:16;94193.63;;;11.28;79.93
49393;BME280;35268;42.642;23.308;2023-05-19T04:56:41;94194.88;;;11.30;80.12
49393;BME280;35268;42.642;23.308;2023-05-19T04:59:08;94195.66;;;11.31;80.09
49393;BME280;35268;42.642;23.308;2023-05-19T05:01:34;94191.59;;;11.33;80.12
49393;BME280;35268;42.642;23.308;2023-05-19T05:04:04;94193.66;;;11.36;80.00
49393;BME280;35268;42.642;23.308;2023-05-19T05:06:30;94195.22;;;11.37;79.36
49393;BME280;35268;42.642;23.308;2023-05-19T05:08:58;94194.31;;;11.42;79.30
49393;BME280;35268;42.642;23.308;2023-05-19T05:11:24;94191.34;;;11.52;79.70
49393;BME280;35268;42.642;23.308;2023-05-19T05:13:50;94189.28;;;11.58;78.98
49393;BME280;35268;42.642;23.308;2023-05-19T05:16:15;94187.13;;;11.69;79.00
49393;BME280;35268;42.642;23.308;2023-05-19T05:18:41;94198.78;;;11.73;78.21
49393;BME280;35268;42.642;23.308;2023-05-19T05:21:07;94194.22;;;11.73;77.58
49393;BME280;35268;42.642;23.308;2023-05-19T05:23:33;94191.41;;;11.87;79.60
49393;BME280;35268;42.642;23.308;2023-05-19T05:25:58;94195.22;;;11.95;77.99
49393;BME280;35268;42.642;23.308;2023-05-19T05:28:24;94182.16;;;12.02;77.65
49393;BME280;35268;42.642;23.308;2023-05-19T05:30:49;94188.31;;;12.11;77.11
49393;BME280;35268;42.642;23.308;2023-05-19T05:33:15;94191.63;;;12.26;77.88
49393;BME280;35268;42.642;23.308;2023-05-19T05:35:41;94196.00;;;12.39;77.56
49393;BME280;35268;42.642;23.308;2023-05-19T05:38:07;94198.34;;;12.49;76.21
49393;BME280;35268;42.642;23.308;2023-05-19T05:40:32;94208.25;;;12.57;75.35
49393;BME280;35268;42.642;23.308;2023-05-19T05:42:58;94202.44;;;12.55;74.94
49393;BME280;35268;42.642;23.308;2023-05-19T05:45:23;94201.81;;;12.58;75.07
49393;BME280;35268;42.642;23.308;2023-05-19T05:47:50;94198.00;;;12.59;74.88
49393;BME280;35268;42.642;23.308;2023-05-19T05:50:16;94205.88;;;12.64;74.47
49393;BME280;35268;42.642;23.308;2023-05-19T05:52:45;94207.44;;;12.65;73.47
49393;BME280;35268;42.642;23.308;2023-05-19T05:55:11;94207.28;;;12.71;74.06
49393;BME280;35268;42.642;23.308;2023-05-19T05:57:36;94203.81;;;12.79;75.07
49393;BME280;35268;42.642;23.308;2023-05-19T06:00:03;94209.59;;;12.90;75.37
49393;BME280;35268;42.642;23.308;2023-05-19T06:02:34;94218.53;;;13.02;75.86
49393;BME280;35268;42.642;23.308;2023-05-19T06:05:00;94223.72;;;13.08;74.36
49393;BME280;35268;42.642;23.308;2023-05-19T06:07:26;94223.69;;;13.16;74.24
49393;BME280;35268;42.642;23.308;2023-05-19T06:09:52;94225.56;;;13.24;73.46
49393;BME280;35268;42.642;23.308;2023-05-19T06:12:17;94230.47;;;13.31;73.85
49393;BME280;35268;42.642;23.308;2023-05-19T06:14:43;94226.81;;;13.36;72.89
49393;BME280;35268;42.642;23.308;2023-05-19T06:17:08;94231.81;;;13.46;71.82
49393;BME280;35268;42.642;23.308;2023-05-19T06:19:33;94218.38;;;13.55;71.58
49393;BME280;35268;42.642;23.308;2023-05-19T06:21:59;94223.09;;;13.58;69.85
49393;BME280;35268;42.642;23.308;2023-05-19T06:24:24;94223.22;;;13.61;70.71
49393;BME280;35268;42.642;23.308;2023-05-19T06:26:51;94222.28;;;13.66;70.32
49393;BME280;35268;42.642;23.308;2023-05-19T06:29:16;94228.22;;;13.72;69.71
49393;BME280;35268;42.642;23.308;2023-05-19T06:31:41;94229.94;;;13.76;69.68
49393;BME280;35268;42.642;23.308;2023-05-19T06:34:07;94233.72;;;13.75;70.17
49393;BME280;35268;42.642;23.308;2023-05-19T06:36:36;94234.00;;;13.82;69.59
49393;BME280;35268;42.642;23.308;2023-05-19T06:39:02;94231.59;;;13.90;69.33
49393;BME280;35268;42.642;23.308;2023-05-19T06:41:27;94226.44;;;14.05;68.03
49393;BME280;35268;42.642;23.308;2023-05-19T06:43:53;94223.25;;;14.12;67.38
49393;BME280;35268;42.642;23.308;2023-05-19T06:46:18;94225.75;;;14.17;67.35
49393;BME280;35268;42.642;23.308;2023-05-19T06:48:44;94237.06;;;14.23;68.15
49393;BME280;35268;42.642;23.308;2023-05-19T06:51:09;94232.63;;;14.27;67.10
49393;BME280;35268;42.642;23.308;2023-05-19T06:53:34;94224.34;;;14.32;67.57
49393;BME280;35268;42.642;23.308;2023-05-19T06:56:00;94226.00;;;14.45;67.40
49393;BME280;35268;42.642;23.308;2023-05-19T06:58:26;94236.50;;;14.59;66.19
49393;BME280;35268;42.642;23.308;2023-05-19T07:00:51;94228.03;;;14.70;65.32
49393;BME280;35268;42.642;23.308;2023-05-19T07:03:17;94236.31;;;14.77;63.94
49393;BME280;35268;42.642;23.308;2023-05-19T07:05:42;94236.91;;;14.82;64.30
49393;BME280;35268;42.642;23.308;2023-05-19T07:08:08;94246.22;;;14.97;64.85
49393;BME280;35268;42.642;23.308;2023-05-19T07:10:33;94244.72;;;15.09;63.31
49393;BME280;35268;42.642;23.308;2023-05-19T07:12:59;94239.13;;;15.14;62.32
49393;BME280;35268;42.642;23.308;2023-05-19T07:15:24;94248.75;;;15.15;61.90
49393;BME280;35268;42.642;23.308;2023-05-19T07:17:50;94246.53;;;15.17;61.40
49393;BME280;35268;42.642;23.308;2023-05-19T07:20:15;94248.97;;;15.22;61.49
49393;BME280;35268;42.642;23.308;2023-05-19T07:22:41;94250.34;;;15.40;61.85
49393;BME280;35268;42.642;23.308;2023-05-19T07:25:07;94245.13;;;15.56;61.09
49393;BME280;35268;42.642;23.308;2023-05-19T07:27:32;94252.06;;;15.70;59.74
49393;BME280;35268;42.642;23.308;2023-05-19T07:29:57;94252.44;;;15.80;59.96
49393;BME280;35268;42.642;23.308;2023-05-19T07:32:23;94251.22;;;15.90;60.01
49393;BME280;35268;42.642;23.308;2023-05-19T07:34:54;94245.97;;;15.94;59.25
49393;BME280;35268;42.642;23.308;2023-05-19T07:37:19;94246.72;;;15.94;59.45
49393;BME280;35268;42.642;23.308;2023-05-19T07:39:45;94241.91;;;16.00;59.42
49393;BME280;35268;42.642;23.308;2023-05-19T07:42:13;94249.41;;;16.07;59.06
49393;BME280;35268;42.642;23.308;2023-05-19T07:44:38;94244.16;;;16.10;59.47
49393;BME280;35268;42.642;23.308;2023-05-19T07:47:04;94252.84;;;16.19;58.10
49393;BME280;35268;42.642;23.308;2023-05-19T07:49:30;94260.00;;;16.28;57.11
49393;BME280;35268;42.642;23.308;2023-05-19T07:51:56;94253.84;;;16.27;57.49
49393;BME280;35268;42.642;23.308;2023-05-19T07:54:21;94244.31;;;16.30;57.18
49393;BME280;35268;42.642;23.308;2023-05-19T07:56:47;94242.94;;;16.48;57.83
49393;BME280;35268;42.642;23.308;2023-05-19T07:59:13;94244.03;;;16.59;57.00
49393;BME280;35268;42.642;23.308;2023-05-19T08:01:38;94242.13;;;16.60;56.74
49393;BME280;35268;42.642;23.308;2023-05-19T08:04:04;94242.44;;;16.58;58.48
49393;BME280;35268;42.642;23.308;2023-05-19T08:06:29;94239.56;;;16.51;58.47
49393;BME280;35268;42.642;23.308;2023-05-19T08:08:56;94249.41;;;16.59;58.37
49393;BME280;35268;42.642;23.308;2023-05-19T08:11:21;94251.06;;;16.64;57.12
49393;BME280;35268;42.642;23.308;2023-05-19T08:13:47;94247.34;;;16.69;57.47
49393;BME280;35268;42.642;23.308;2023-05-19T08:16:14;94245.91;;;16.71;56.66
49393;BME280;35268;42.642;23.308;2023-05-19T08:18:40;94248.78;;;16.78;56.41
49393;BME280;35268;42.642;23.308;2023-05-19T08:21:05;94243.06;;;16.80;55.46
49393;BME280;35268;42.642;23.308;2023-05-19T08:23:31;94249.56;;;16.79;57.05
49393;BME280;35268;42.642;23.308;2023-05-19T08:25:57;94245.31;;;16.78;56.13
49393;BME280;35268;42.642;23.308;2023-05-19T08:28:22;94242.19;;;16.76;56.91
49393;BME280;35268;42.642;23.308;2023-05-19T08:30:49;94247.00;;;16.82;57.62
49393;BME280;35268;42.642;23.308;2023-05-19T08:33:14;94232.00;;;16.97;56.38
49393;BME280;35268;42.642;23.308;2023-05-19T08:35:40;94237.34;;;17.10;55.77
49393;BME280;35268;42.642;23.308;2023-05-19T08:38:05;94246.91;;;17.23;55.74
49393;BME280;35268;42.642;23.308;2023-05-19T08:40:32;94242.00;;;17.41;56.18
49393;BME280;35268;42.642;23.308;2023-05-19T08:42:59;94239.75;;;17.59;54.71
49393;BME280;35268;42.642;23.308;2023-05-19T08:45:30;94242.25;;;17.68;54.74
49393;BME280;35268;42.642;23.308;2023-05-19T08:48:06;94240.66;;;17.82;54.36
49393;BME280;35268;42.642;23.308;2023-05-19T08:50:34;94242.09;;;17.92;53.45
49393;BME280;35268;42.642;23.308;2023-05-19T08:53:08;94245.47;;;18.05;53.36
49393;BME280;35268;42.642;23.308;2023-05-19T08:55:49;94239.69;;;18.22;54.41
49393;BME280;35268;42.642;23.308;2023-05-19T08:58:30;94233.31;;;18.31;52.09
49393;BME280;35268;42.642;23.308;2023-05-19T09:00:56;94242.00;;;18.40;52.36
49393;BME280;35268;42.642;23.308;2023-05-19T09:03:24;94237.25;;;18.53;51.32
49393;BME280;35268;42.642;23.308;2023-05-19T09:05:54;94233.78;;;18.52;51.66
49393;BME280;35268;42.642;23.308;2023-05-19T09:08:30;94233.22;;;18.62;52.38
49393;BME280;35268;42.642;23.308;2023-05-19T09:10:59;94227.19;;;18.89;52.90
49393;BME280;35268;42.642;23.308;2023-05-19T09:13:25;94222.34;;;19.17;53.23
49393;BME280;35268;42.642;23.308;2023-05-19T09:15:52;94223.19;;;19.44;51.24
49393;BME280;35268;42.642;23.308;2023-05-19T09:18:29;94228.50;;;19.64;50.84
49393;BME280;35268;42.642;23.308;2023-05-19T09:21:04;94217.50;;;19.73;49.44
49393;BME280;35268;42.642;23.308;2023-05-19T09:23:31;94215.84;;;19.91;48.63
49393;BME280;35268;42.642;23.308;2023-05-19T09:26:02;94218.75;;;20.06;48.07
49393;BME280;35268;42.642;23.308;2023-05-19T09:28:59;94215.91;;;20.21;49.03
49393;BME280;35268;42.642;23.308;2023-05-19T09:31:30;94203.34;;;20.36;48.34
49393;BME280;35268;42.642;23.308;2023-05-19T09:33:56;94203.47;;;20.47;46.78
49393;BME280;35268;42.642;23.308;2023-05-19T09:36:22;94208.22;;;20.54;46.81
49393;BME280;35268;42.642;23.308;2023-05-19T09:38:50;94209.19;;;20.69;46.69
49393;BME280;35268;42.642;23.308;2023-05-19T09:41:18;94210.66;;;20.62;46.23
49393;BME280;35268;42.642;23.308;2023-05-19T09:43:55;94212.22;;;20.63;45.33
49393;BME280;35268;42.642;23.308;2023-05-19T09:46:24;94217.59;;;20.60;46.98
49393;BME280;35268;42.642;23.308;2023-05-19T09:49:06;94217.53;;;20.56;46.35
49393;BME280;35268;42.642;23.308;2023-05-19T09:51:54;94209.09;;;20.61;45.98
49393;BME280;35268;42.642;23.308;2023-05-19T09:54:20;94217.72;;;20.71;44.96
49393;BME280;35268;42.642;23.308;2023-05-19T09:56:59;94204.66;;;20.80;45.73
49393;BME280;35268;42.642;23.308;2023-05-19T09:59:26;94210.22;;;20.91;45.79
49393;BME280;35268;42.642;23.308;2023-05-19T10:01:53;94210.38;;;21.05;45.06
49393;BME280;35268;42.642;23.308;2023-05-19T10:04:21;94207.00;;;21.15;44.20
49393;BME280;35268;42.642;23.308;2023-05-19T10:06:48;94201.28;;;21.24;43.91
49393;BME280;35268;42.642;23.308;2023-05-19T10:09:21;94210.28;;;21.35;44.03
49393;BME280;35268;42.642;23.308;2023-05-19T10:11:52;94203.06;;;21.47;42.06
49393;BME280;35268;42.642;23.308;2023-05-19T10:14:21;94199.22;;;21.48;42.24
49393;BME280;35268;42.642;23.308;2023-05-19T10:16:49;94198.81;;;21.46;43.24
49393;BME280;35268;42.642;23.308;2023-05-19T10:19:16;94192.22;;;21.47;42.45
49393;BME280;35268;42.642;23.308;2023-05-19T10:21:44;94193.81;;;21.55;42.37
49393;BME280;35268;42.642;23.308;2023-05-19T10:24:10;94200.09;;;21.62;43.35
49393;BME280;35268;42.642;23.308;2023-05-19T10:26:36;94194.03;;;21.80;43.57
49393;BME280;35268;42.642;23.308;2023-05-19T10:29:03;94192.50;;;21.82;41.85
49393;BME280;35268;42.642;23.308;2023-05-19T10:31:30;94191.00;;;21.89;41.40
49393;BME280;35268;42.642;23.308;2023-05-19T10:39:52;94178.00;;;22.19;40.85
49393;BME280;35268;42.642;23.308;2023-05-19T10:42:44;94183.09;;;22.24;42.18
49393;BME280;35268;42.642;23.308;2023-05-19T10:45:20;94182.78;;;22.40;41.30
49393;BME280;35268;42.642;23.308;2023-05-19T10:47:49;94182.88;;;22.51;40.03
49393;BME280;35268;42.642;23.308;2023-05-19T10:50:15;94182.50;;;22.56;38.88
49393;BME280;35268;42.642;23.308;2023-05-19T10:52:41;94173.53;;;22.45;39.09
49393;BME280;35268;42.642;23.308;2023-05-19T10:55:11;94178.22;;;22.52;40.09
49393;BME280;35268;42.642;23.308;2023-05-19T10:57:52;94165.09;;;22.75;39.13
49393;BME280;35268;42.642;23.308;2023-05-19T11:00:29;94164.75;;;22.91;37.71
49393;BME280;35268;42.642;23.308;2023-05-19T11:03:14;94169.03;;;22.99;35.76
49393;BME280;35268;42.642;23.308;2023-05-19T11:05:40;94160.94;;;23.03;35.80
49393;BME280;35268;42.642;23.308;2023-05-19T11:08:11;94163.66;;;23.03;37.12
49393;BME280;35268;42.642;23.308;2023-05-19T11:10:37;94162.91;;;23.13;35.00
49393;BME280;35268;42.642;23.308;2023-05-19T11:13:05;94168.72;;;23.26;36.66
49393;BME280;35268;42.642;23.308;2023-05-19T11:15:34;94162.94;;;23.35;36.57
49393;BME280;35268;42.642;23.308;2023-05-19T11:18:01;94168.38;;;23.56;36.00
49393;BME280;35268;42.642;23.308;2023-05-19T11:20:29;94164.50;;;23.68;36.04
49393;BME280;35268;42.642;23.308;2023-05-19T11:23:09;94158.66;;;23.70;36.62
49393;BME280;35268;42.642;23.308;2023-05-19T11:25:48;94153.63;;;23.68;37.04
49393;BME280;35268;42.642;23.308;2023-05-19T11:28:16;94155.56;;;23.78;36.15
49393;BME280;35268;42.642;23.308;2023-05-19T11:30:44;94156.72;;;23.99;34.65
49393;BME280;35268;42.642;23.308;2023-05-19T11:33:11;94144.22;;;24.19;33.65
49393;BME280;35268;42.642;23.308;2023-05-19T11:35:38;94150.03;;;24.32;33.25
49393;BME280;35268;42.642;23.308;2023-05-19T11:38:04;94144.94;;;24.41;31.74
49393;BME280;35268;42.642;23.308;2023-05-19T11:40:31;94148.78;;;24.58;32.59
49393;BME280;35268;42.642;23.308;2023-05-19T11:42:56;94140.97;;;24.68;32.43
49393;BME280;35268;42.642;23.308;2023-05-19T11:45:26;94142.88;;;24.78;32.30
49393;BME280;35268;42.642;23.308;2023-05-19T11:47:54;94147.91;;;24.83;33.20
49393;BME280;35268;42.642;23.308;2023-05-19T11:50:21;94159.63;;;24.76;33.43
49393;BME280;35268;42.642;23.308;2023-05-19T11:52:47;94172.13;;;24.67;34.93
49393;BME280;35268;42.642;23.308;2023-05-19T11:55:19;94191.66;;;24.29;40.64
49393;BME280;35268;42.642;23.308;2023-05-19T12:00:23;94226.56;;;23.01;46.58
49393;BME280;35268;42.642;23.308;2023-05-19T12:02:49;94234.00;;;22.38;45.87
49393;BME280;35268;42.642;23.308;2023-05-19T12:05:21;94233.56;;;21.81;44.25
49393;BME280;35268;42.642;23.308;2023-05-19T12:07:48;94209.59;;;21.04;45.63
49393;BME280;35268;42.642;23.308;2023-05-19T12:10:16;94234.28;;;20.35;44.41
49393;BME280;35268;42.642;23.308;2023-05-19T12:12:41;94247.47;;;19.87;47.99
49393;BME280;35268;42.642;23.308;2023-05-19T12:15:09;94260.91;;;19.60;50.40
49393;BME280;35268;42.642;23.308;2023-05-19T12:17:35;94256.44;;;19.26;52.17
49393;BME280;35268;42.642;23.308;2023-05-19T12:20:01;94271.31;;;18.96;54.14
49393;BME280;35268;42.642;23.308;2023-05-19T12:22:29;94252.50;;;18.45;56.37
49393;BME280;35268;42.642;23.308;2023-05-19T12:24:54;94255.31;;;17.81;57.84
49393;BME280;35268;42.642;23.308;2023-05-19T12:27:24;94244.59;;;17.37;59.43
49393;BME280;35268;42.642;23.308;2023-05-19T12:29:53;94249.84;;;17.02;61.28
49393;BME280;35268;42.642;23.308;2023-05-19T12:32:45;94247.34;;;16.69;63.01
49393;BME280;35268;42.642;23.308;2023-05-19T12:35:45;94227.81;;;16.43;65.23
49393;BME280;35268;42.642;23.308;2023-05-19T12:38:27;94217.75;;;16.28;65.82
49393;BME280;35268;42.642;23.308;2023-05-19T12:41:27;94216.88;;;16.24;67.09
49393;BME280;35268;42.642;23.308;2023-05-19T12:44:20;94202.31;;;16.25;68.03
49393;BME280;35268;42.642;23.308;2023-05-19T12:47:09;94206.78;;;16.33;66.01
49393;BME280;35268;42.642;23.308;2023-05-19T12:50:13;94199.00;;;16.44;66.10
49393;BME280;35268;42.642;23.308;2023-05-19T12:52:46;94190.81;;;16.53;64.67
49393;BME280;35268;42.642;23.308;2023-05-19T12:55:19;94190.31;;;16.63;62.21
49393;BME280;35268;42.642;23.308;2023-05-19T12:57:50;94167.69;;;16.80;62.14
49393;BME280;35268;42.642;23.308;2023-05-19T13:00:20;94176.50;;;16.93;61.14
49393;BME280;35268;42.642;23.308;2023-05-19T13:03:06;94178.53;;;17.12;59.11
49393;BME280;35268;42.642;23.308;2023-05-19T13:05:39;94177.22;;;17.37;59.21
49393;BME280;35268;42.642;23.308;2023-05-19T13:08:12;94177.38;;;17.60;58.83
49393;BME280;35268;42.642;23.308;2023-05-19T13:10:40;94165.63;;;17.84;55.90
49393;BME280;35268;42.642;23.308;2023-05-19T13:13:09;94163.66;;;18.75;54.87
49393;BME280;35268;42.642;23.308;2023-05-19T13:15:50;94164.94;;;19.97;53.28
49393;BME280;35268;42.642;23.308;2023-05-19T13:18:22;94160.16;;;21.15;51.17
49393;BME280;35268;42.642;23.308;2023-05-19T13:21:00;94165.03;;;21.91;46.48
49393;BME280;35268;42.642;23.308;2023-05-19T13:26:05;94161.28;;;22.14;46.60
49393;BME280;35268;42.642;23.308;2023-05-19T13:28:35;94161.66;;;22.05;44.83